Time,TemperatureF,DewpointF,PressureIn,WindDirection,WindDirectionDegrees,WindSpeedMPH,WindSpeedGustMPH,Humidity,HourlyPrecipIn,Conditions,Clouds,dailyrainin,SolarRadiationWatts/m^2,SoftwareType,DateUTC
2013-11-10 00:01:00,40.1,30.0,30.04,SSW,204,0.0,0.0,67,0.00,,,0.00,0.00,VWS V14.01,2013-11-10 05:01:00,
2013-11-10 00:06:00,39.9,30.6,30.04,SSW,204,0.0,1.0,69,0.00,,,0.00,0.00,VWS V14.01,2013-11-10 05:06:00,
2013-11-10 00:11:00,39.6,30.3,30.04,SSW,204,1.0,1.0,69,0.00,,,0.00,0.00,VWS V14.01,2013-11-10 05:11:00,
2013-11-10 00:16:00,39.2,30.6,30.04,SSW,204,1.0,2.0,71,0.00,,,0.00,0.00,VWS V14.01,2013-11-10 05:16:00,
2013-11-10 00:21:00,38.8,30.2,30.03,SSW,204,0.0,0.0,71,0.00,,,0.00,0.00,VWS V14.01,2013-11-10 05:21:00,
2013-11-10 00:26:00,38.7,30.5,30.03,SSW,204,1.0,1.0,72,0.00,,,0.00,0.00,VWS V14.01,2013-11-10 05:26:00,
2013-11-10 00:31:00,39.0,30.8,30.02,SSW,203,1.0,1.0,72,0.00,,,0.00,0.00,VWS V14.01,2013-11-10 05:31:00,
2013-11-10 00:36:00,39.3,31.4,30.02,SSW,204,0.0,1.0,73,0.00,,,0.00,0.00,VWS V14.01,2013-11-10 05:36:00,
2013-11-10 00:41:00,39.5,31.2,30.01,SSW,204,0.0,0.0,72,0.00,,,0.00,0.00,VWS V14.01,2013-11-10 05:41:00,
2013-11-10 00:46:00,39.3,31.4,30.01,SSW,204,0.0,0.0,73,0.00,,,0.00,0.00,VWS V14.01,2013-11-10 05:46:00,
2013-11-10 00:51:00,39.2,32.0,30.01,SSW,204,1.0,2.0,75,0.00,,,0.00,0.00,VWS V14.01,2013-11-10 05:51:00,
2013-11-10 00:56:00,39.3,32.4,30.00,SSW,204,0.0,0.0,76,0.00,,,0.00,0.00,VWS V14.01,2013-11-10 05:56:00,
2013-11-10 01:01:00,39.3,32.4,30.00,SSW,204,1.0,2.0,76,0.00,,,0.00,0.00,VWS V14.01,2013-11-10 06:01:00,
2013-11-10 01:06:00,39.9,32.6,30.00,SE,138,2.0,3.0,75,0.00,,,0.00,0.00,VWS V14.01,2013-11-10 06:06:00,
2013-11-10 01:11:00,40.5,32.9,29.99,SSE,167,6.0,8.0,74,0.00,,,0.00,0.00,VWS V14.01,2013-11-10 06:11:00,
2013-11-10 01:16:00,42.2,33.5,29.99,South,179,5.0,10.0,71,0.00,,,0.00,0.00,VWS V14.01,2013-11-10 06:16:00,
2013-11-10 01:21:00,44.1,33.1,29.98,South,191,6.0,8.0,65,0.00,,,0.00,0.00,VWS V14.01,2013-11-10 06:21:00,
2013-11-10 01:26:00,45.0,34.3,29.98,SSE,154,6.0,8.0,66,0.00,,,0.00,0.00,VWS V14.01,2013-11-10 06:26:00,
2013-11-10 01:31:00,45.4,34.3,29.98,South,183,10.0,10.0,65,0.00,,,0.00,0.00,VWS V14.01,2013-11-10 06:31:00,
2013-11-10 01:36:00,45.5,34.0,29.97,SSE,159,8.0,12.0,64,0.00,,,0.00,0.00,VWS V14.01,2013-11-10 06:36:00,
2013-11-10 01:41:00,45.7,34.2,29.97,SSE,164,9.0,12.0,64,0.00,,,0.00,0.00,VWS V14.01,2013-11-10 06:41:00,
2013-11-10 01:46:00,45.8,35.1,29.97,South,175,9.0,14.0,66,0.00,,,0.00,0.00,VWS V14.01,2013-11-10 06:46:00,
2013-11-10 01:51:00,46.0,34.9,29.96,South,178,9.0,13.0,65,0.00,,,0.00,0.00,VWS V14.01,2013-11-10 06:51:00,
2013-11-10 01:56:00,46.0,34.9,29.96,South,177,8.0,15.0,65,0.00,,,0.00,0.00,VWS V14.01,2013-11-10 06:56:00,
2013-11-10 02:01:00,46.2,35.9,29.96,South,174,10.0,10.0,67,0.00,,,0.00,0.00,VWS V14.01,2013-11-10 07:01:00,
2013-11-10 02:06:00,46.2,35.1,29.96,SSW,212,13.0,13.0,65,0.00,,,0.00,0.00,VWS V14.01,2013-11-10 07:06:00,
2013-11-10 02:11:00,46.1,35.8,29.96,South,178,11.0,11.0,67,0.00,,,0.00,0.00,VWS V14.01,2013-11-10 07:11:00,
2013-11-10 02:16:00,46.1,35.8,29.96,SW,225,8.0,8.0,67,0.00,,,0.00,0.00,VWS V14.01,2013-11-10 07:16:00,
2013-11-10 02:21:00,45.9,35.2,29.96,South,191,13.0,20.0,66,0.00,,,0.00,0.00,VWS V14.01,2013-11-10 07:21:00,
2013-11-10 02:26:00,45.5,34.4,29.95,SW,216,12.0,13.0,65,0.00,,,0.00,0.00,VWS V14.01,2013-11-10 07:26:00,
2013-11-10 02:31:00,45.0,33.6,29.96,South,191,10.0,12.0,64,0.00,,,0.00,0.00,VWS V14.01,2013-11-10 07:31:00,
2013-11-10 02:36:00,44.5,33.1,29.95,SW,228,12.0,13.0,64,0.00,,,0.00,0.00,VWS V14.01,2013-11-10 07:36:00,
2013-11-10 02:41:00,44.2,33.2,29.95,WSW,248,17.0,19.0,65,0.00,,,0.00,0.00,VWS V14.01,2013-11-10 07:41:00,
2013-11-10 02:46:00,43.9,33.7,29.95,SW,217,12.0,12.0,67,0.00,,,0.00,0.00,VWS V14.01,2013-11-10 07:46:00,
2013-11-10 02:51:00,43.7,33.5,29.95,South,191,8.0,9.0,67,0.00,,,0.00,0.00,VWS V14.01,2013-11-10 07:51:00,
2013-11-10 02:56:00,43.5,33.7,29.95,SW,235,5.0,6.0,68,0.00,,,0.00,0.00,VWS V14.01,2013-11-10 07:56:00,
2013-11-10 03:01:00,43.4,33.6,29.95,SW,214,6.0,7.0,68,0.00,,,0.00,0.00,VWS V14.01,2013-11-10 08:01:00,
2013-11-10 03:06:00,43.2,33.7,29.94,SSW,212,2.0,4.0,69,0.00,,,0.00,0.00,VWS V14.01,2013-11-10 08:06:00,
2013-11-10 03:11:00,43.1,33.6,29.94,SSW,210,7.0,7.0,69,0.00,,,0.00,0.00,VWS V14.01,2013-11-10 08:11:00,
2013-11-10 03:16:00,42.9,34.2,29.93,SSW,201,5.0,5.0,71,0.00,,,0.00,0.00,VWS V14.01,2013-11-10 08:16:00,
2013-11-10 03:21:00,42.7,34.3,29.93,WSW,239,3.0,6.0,72,0.00,,,0.00,0.00,VWS V14.01,2013-11-10 08:21:00,
2013-11-10 03:26:00,42.5,34.1,29.93,SW,216,2.0,4.0,72,0.00,,,0.00,0.00,VWS V14.01,2013-11-10 08:26:00,
2013-11-10 03:31:00,42.4,34.4,29.93,SW,216,2.0,3.0,73,0.00,,,0.00,0.00,VWS V14.01,2013-11-10 08:31:00,
2013-11-10 03:36:00,42.3,34.6,29.92,SW,218,1.0,2.0,74,0.00,,,0.00,0.00,VWS V14.01,2013-11-10 08:36:00,
2013-11-10 03:41:00,42.1,34.8,29.93,SW,227,2.0,2.0,75,0.00,,,0.00,0.00,VWS V14.01,2013-11-10 08:41:00,
2013-11-10 03:46:00,41.9,34.9,29.93,SW,230,2.0,2.0,76,0.00,,,0.00,0.00,VWS V14.01,2013-11-10 08:46:00,
2013-11-10 03:51:00,41.6,34.9,29.92,SW,233,0.0,0.0,77,0.00,,,0.00,0.00,VWS V14.01,2013-11-10 08:51:00,
2013-11-10 03:56:00,41.5,35.2,29.92,WSW,238,0.0,0.0,78,0.00,,,0.00,0.00,VWS V14.01,2013-11-10 08:56:00,
2013-11-10 04:01:00,41.4,35.4,29.92,WSW,238,0.0,0.0,79,0.00,,,0.00,0.00,VWS V14.01,2013-11-10 09:01:00,
2013-11-10 04:06:00,41.2,35.5,29.92,West,268,2.0,2.0,80,0.00,,,0.00,0.00,VWS V14.01,2013-11-10 09:06:00,
2013-11-10 04:11:00,40.9,35.5,29.92,West,268,1.0,2.0,81,0.00,,,0.00,0.00,VWS V14.01,2013-11-10 09:11:00,
2013-11-10 04:16:00,40.6,35.8,29.91,West,268,1.0,2.0,83,0.00,,,0.00,0.00,VWS V14.01,2013-11-10 09:16:00,
2013-11-10 04:21:00,40.4,35.7,29.92,West,268,1.0,2.0,83,0.00,,,0.00,0.00,VWS V14.01,2013-11-10 09:21:00,
2013-11-10 04:26:00,40.1,35.7,29.92,West,274,2.0,3.0,84,0.00,,,0.00,0.00,VWS V14.01,2013-11-10 09:26:00,
2013-11-10 04:31:00,40.0,35.9,29.91,NW,311,2.0,3.0,85,0.00,,,0.00,0.00,VWS V14.01,2013-11-10 09:31:00,
2013-11-10 04:36:00,39.8,35.7,29.91,NW,305,2.0,2.0,85,0.00,,,0.00,0.00,VWS V14.01,2013-11-10 09:36:00,
2013-11-10 04:41:00,39.7,35.6,29.91,NW,305,2.0,2.0,85,0.00,,,0.00,0.00,VWS V14.01,2013-11-10 09:41:00,
2013-11-10 04:46:00,39.6,35.5,29.91,WNW,301,2.0,2.0,85,0.00,,,0.00,0.00,VWS V14.01,2013-11-10 09:46:00,
2013-11-10 04:51:00,39.5,35.4,29.91,NW,318,1.0,1.0,85,0.00,,,0.00,0.00,VWS V14.01,2013-11-10 09:51:00,
2013-11-10 04:56:00,39.3,35.5,29.90,NW,324,1.0,1.0,86,0.00,,,0.00,0.00,VWS V14.01,2013-11-10 09:56:00,
2013-11-10 05:01:00,39.3,35.5,29.90,NW,304,2.0,2.0,86,0.00,,,0.00,0.00,VWS V14.01,2013-11-10 10:01:00,
2013-11-10 05:06:00,39.2,35.4,29.90,NW,304,0.0,1.0,86,0.00,,,0.00,0.00,VWS V14.01,2013-11-10 10:06:00,
2013-11-10 05:11:00,39.3,35.5,29.90,NW,304,1.0,2.0,86,0.00,,,0.00,0.00,VWS V14.01,2013-11-10 10:11:00,
2013-11-10 05:16:00,39.2,35.4,29.90,NW,305,1.0,2.0,86,0.00,,,0.00,0.00,VWS V14.01,2013-11-10 10:16:00,
2013-11-10 05:21:00,39.1,35.6,29.90,NW,307,1.0,1.0,87,0.00,,,0.00,0.00,VWS V14.01,2013-11-10 10:21:00,
2013-11-10 05:26:00,39.0,35.8,29.90,WNW,297,2.0,2.0,88,0.00,,,0.00,0.00,VWS V14.01,2013-11-10 10:26:00,
2013-11-10 05:31:00,38.9,35.9,29.90,NW,314,4.0,4.0,89,0.00,,,0.00,0.00,VWS V14.01,2013-11-10 10:31:00,
2013-11-10 05:36:00,38.8,35.8,29.90,NW,315,2.0,4.0,89,0.01,,,0.01,0.00,VWS V14.01,2013-11-10 10:36:00,
2013-11-10 05:41:00,38.7,36.0,29.90,WNW,293,0.0,2.0,90,0.02,,,0.02,0.00,VWS V14.01,2013-11-10 10:41:00,
2013-11-10 05:46:00,38.7,36.0,29.89,WNW,283,0.0,0.0,90,0.02,,,0.02,0.00,VWS V14.01,2013-11-10 10:46:00,
2013-11-10 05:51:00,38.7,36.0,29.89,SSW,210,1.0,1.0,90,0.02,,,0.02,0.00,VWS V14.01,2013-11-10 10:51:00,
2013-11-10 05:56:00,38.9,36.5,29.90,SSW,203,2.0,3.0,91,0.02,,,0.02,0.00,VWS V14.01,2013-11-10 10:56:00,
2013-11-10 06:01:00,39.1,36.7,29.89,SW,214,2.0,3.0,91,0.02,,,0.02,0.00,VWS V14.01,2013-11-10 11:01:00,
2013-11-10 06:05:00,39.3,36.9,29.89,SSW,213,2.0,3.0,91,0.03,,,0.03,0.00,VWS V14.01,2013-11-10 11:05:00,
2013-11-10 06:10:00,39.4,36.7,29.89,SW,222,2.0,3.0,90,0.03,,,0.03,0.00,VWS V14.01,2013-11-10 11:10:00,
2013-11-10 06:15:00,39.4,36.7,29.89,SSW,208,2.0,3.0,90,0.03,,,0.03,0.00,VWS V14.01,2013-11-10 11:15:00,
2013-11-10 06:20:00,39.4,36.7,29.88,SW,222,2.0,3.0,90,0.03,,,0.03,0.00,VWS V14.01,2013-11-10 11:20:00,
2013-11-10 06:25:00,39.3,36.6,29.88,SW,222,0.0,0.0,90,0.04,,,0.04,0.00,VWS V14.01,2013-11-10 11:25:00,
2013-11-10 06:30:00,39.3,36.6,29.88,SW,222,1.0,1.0,90,0.04,,,0.04,0.00,VWS V14.01,2013-11-10 11:30:00,
2013-11-10 06:35:00,39.3,36.6,29.88,SW,222,1.0,1.0,90,0.04,,,0.05,0.00,VWS V14.01,2013-11-10 11:35:00,
2013-11-10 06:40:00,39.3,36.6,29.88,SW,222,1.0,2.0,90,0.03,,,0.05,0.00,VWS V14.01,2013-11-10 11:40:00,
2013-11-10 06:45:00,39.3,36.6,29.87,SW,222,0.0,0.0,90,0.03,,,0.05,0.00,VWS V14.01,2013-11-10 11:45:00,
2013-11-10 06:50:00,39.2,36.5,29.87,SW,222,0.0,0.0,90,0.03,,,0.05,5.00,VWS V14.01,2013-11-10 11:50:00,
2013-11-10 06:55:00,39.2,36.5,29.87,SW,222,1.0,1.0,90,0.03,,,0.05,12.00,VWS V14.01,2013-11-10 11:55:00,
2013-11-10 07:00:00,39.2,36.5,29.87,SW,222,0.0,0.0,90,0.03,,,0.05,16.00,VWS V14.01,2013-11-10 12:00:00,
2013-11-10 07:05:00,39.2,36.5,29.87,SW,222,1.0,1.0,90,0.02,,,0.05,19.00,VWS V14.01,2013-11-10 12:05:00,
2013-11-10 07:10:00,39.3,36.9,29.87,SW,222,0.0,0.0,91,0.02,,,0.05,23.00,VWS V14.01,2013-11-10 12:10:00,
2013-11-10 07:15:00,39.3,36.9,29.87,SW,222,0.0,1.0,91,0.02,,,0.05,25.00,VWS V14.01,2013-11-10 12:15:00,
2013-11-10 07:20:00,39.3,36.9,29.86,SW,222,0.0,1.0,91,0.02,,,0.05,23.00,VWS V14.01,2013-11-10 12:20:00,
2013-11-10 07:25:00,39.3,36.9,29.86,SW,222,0.0,0.0,91,0.01,,,0.05,28.00,VWS V14.01,2013-11-10 12:25:00,
2013-11-10 07:30:00,39.3,36.9,29.86,SW,221,0.0,0.0,91,0.01,,,0.05,33.00,VWS V14.01,2013-11-10 12:30:00,
2013-11-10 07:35:00,39.3,36.9,29.86,SW,222,1.0,1.0,91,0.01,,,0.05,49.00,VWS V14.01,2013-11-10 12:35:00,
2013-11-10 07:40:00,39.3,36.9,29.85,SW,222,1.0,1.0,91,0.00,,,0.05,116.00,VWS V14.01,2013-11-10 12:40:00,
2013-11-10 07:45:00,39.3,36.9,29.85,SW,222,0.0,1.0,91,0.00,,,0.05,185.00,VWS V14.01,2013-11-10 12:45:00,
2013-11-10 07:50:00,39.7,37.3,29.85,SW,222,1.0,1.0,91,0.00,,,0.05,104.00,VWS V14.01,2013-11-10 12:50:00,
2013-11-10 07:55:00,40.0,37.6,29.85,SW,222,0.0,0.0,91,0.00,,,0.05,81.00,VWS V14.01,2013-11-10 12:55:00,
2013-11-10 08:00:00,40.2,37.8,29.84,SW,222,0.0,0.0,91,0.00,,,0.05,69.00,VWS V14.01,2013-11-10 13:00:00,
2013-11-10 08:05:00,40.3,37.9,29.84,SW,222,0.0,0.0,91,0.00,,,0.05,74.00,VWS V14.01,2013-11-10 13:05:00,
2013-11-10 08:10:00,40.6,38.2,29.84,SW,222,1.0,1.0,91,0.00,,,0.05,88.00,VWS V14.01,2013-11-10 13:10:00,
2013-11-10 08:15:00,40.9,38.5,29.84,SW,222,0.0,0.0,91,0.00,,,0.05,227.00,VWS V14.01,2013-11-10 13:15:00,
2013-11-10 08:20:00,41.6,39.2,29.84,SW,221,0.0,0.0,91,0.00,,,0.05,248.00,VWS V14.01,2013-11-10 13:20:00,
2013-11-10 08:25:00,42.1,40.0,29.84,SW,221,1.0,1.0,92,0.00,,,0.05,250.00,VWS V14.01,2013-11-10 13:25:00,
2013-11-10 08:30:00,42.3,39.6,29.84,SW,222,1.0,1.0,90,0.00,,,0.05,216.00,VWS V14.01,2013-11-10 13:30:00,
2013-11-10 08:35:00,42.7,40.3,29.83,SW,222,2.0,2.0,91,0.00,,,0.05,283.00,VWS V14.01,2013-11-10 13:35:00,
2013-11-10 08:40:00,42.8,40.4,29.83,NW,304,1.0,1.0,91,0.00,,,0.05,116.00,VWS V14.01,2013-11-10 13:40:00,
2013-11-10 08:45:00,43.2,40.5,29.83,NW,304,1.0,1.0,90,0.00,,,0.05,304.00,VWS V14.01,2013-11-10 13:45:00,
2013-11-10 08:50:00,43.5,40.8,29.83,NW,304,2.0,2.0,90,0.00,,,0.05,158.00,VWS V14.01,2013-11-10 13:50:00,
2013-11-10 08:55:00,43.8,40.8,29.84,NW,304,2.0,3.0,89,0.00,,,0.05,262.00,VWS V14.01,2013-11-10 13:55:00,
2013-11-10 09:00:00,44.4,41.7,29.83,NW,312,1.0,1.0,90,0.00,,,0.05,323.00,VWS V14.01,2013-11-10 14:00:00,
2013-11-10 09:05:00,44.9,41.9,29.84,NW,305,1.0,1.0,89,0.00,,,0.05,330.00,VWS V14.01,2013-11-10 14:05:00,
2013-11-10 09:10:00,45.3,42.0,29.84,NNW,333,0.0,2.0,88,0.00,,,0.05,257.00,VWS V14.01,2013-11-10 14:10:00,
2013-11-10 09:15:00,45.5,42.2,29.83,NE,41,1.0,2.0,88,0.00,,,0.05,243.00,VWS V14.01,2013-11-10 14:15:00,
2013-11-10 09:20:00,45.9,42.5,29.83,NE,40,1.0,1.0,88,0.00,,,0.05,223.00,VWS V14.01,2013-11-10 14:20:00,
2013-11-10 09:25:00,46.0,42.7,29.83,NE,40,1.0,2.0,88,0.00,,,0.05,153.00,VWS V14.01,2013-11-10 14:25:00,
2013-11-10 09:30:00,46.1,42.5,29.83,NE,40,0.0,1.0,87,0.00,,,0.05,353.00,VWS V14.01,2013-11-10 14:30:00,
2013-11-10 09:35:00,46.7,42.7,29.83,SSW,203,5.0,5.0,86,0.00,,,0.05,272.00,VWS V14.01,2013-11-10 14:35:00,
2013-11-10 09:40:00,46.9,42.3,29.83,South,169,2.0,5.0,84,0.00,,,0.05,190.00,VWS V14.01,2013-11-10 14:40:00,
2013-11-10 09:45:00,46.9,42.3,29.82,WSW,254,2.0,5.0,84,0.00,,,0.05,199.00,VWS V14.01,2013-11-10 14:45:00,
2013-11-10 09:50:00,47.0,42.4,29.82,West,260,6.0,6.0,84,0.00,,,0.05,230.00,VWS V14.01,2013-11-10 14:50:00,
2013-11-10 09:55:00,46.7,41.8,29.82,SSW,206,7.0,7.0,83,0.00,,,0.05,188.00,VWS V14.01,2013-11-10 14:55:00,
2013-11-10 10:00:00,46.6,41.7,29.82,SSW,204,8.0,8.0,83,0.00,,,0.05,185.00,VWS V14.01,2013-11-10 15:00:00,
2013-11-10 10:05:00,46.3,41.4,29.82,SSW,201,7.0,11.0,83,0.00,,,0.05,199.00,VWS V14.01,2013-11-10 15:05:00,
2013-11-10 10:11:00,46.1,41.2,29.81,SW,223,6.0,8.0,83,0.00,,,0.05,176.00,VWS V14.01,2013-11-10 15:11:00,
2013-11-10 10:16:00,46.1,41.2,29.81,South,188,7.0,10.0,83,0.00,,,0.05,237.00,VWS V14.01,2013-11-10 15:16:00,
2013-11-10 10:21:00,46.1,41.2,29.81,SSW,198,5.0,7.0,83,0.00,,,0.05,236.00,VWS V14.01,2013-11-10 15:21:00,
2013-11-10 10:26:00,46.3,41.7,29.81,SSW,205,4.0,8.0,84,0.00,,,0.05,185.00,VWS V14.01,2013-11-10 15:26:00,
2013-11-10 10:31:00,46.3,41.7,29.80,West,274,8.0,8.0,84,0.00,,,0.05,243.00,VWS V14.01,2013-11-10 15:31:00,
2013-11-10 10:36:00,46.7,41.8,29.80,WSW,253,3.0,3.0,83,0.00,,,0.05,227.00,VWS V14.01,2013-11-10 15:36:00,
2013-11-10 10:41:00,46.7,41.5,29.80,SSW,198,7.0,7.0,82,0.00,,,0.05,214.00,VWS V14.01,2013-11-10 15:41:00,
2013-11-10 10:45:00,46.7,41.2,29.79,SSW,208,5.0,5.0,81,0.00,,,0.05,195.00,VWS V14.01,2013-11-10 15:45:00,
2013-11-10 10:50:00,46.6,40.5,29.79,WSW,250,13.0,13.0,79,0.00,,,0.05,287.00,VWS V14.01,2013-11-10 15:50:00,
2013-11-10 10:55:00,46.6,40.5,29.78,SW,217,9.0,9.0,79,0.00,,,0.05,339.00,VWS V14.01,2013-11-10 15:55:00,
2013-11-10 11:00:00,47.3,41.1,29.78,West,272,7.0,11.0,79,0.00,,,0.05,712.00,VWS V14.01,2013-11-10 16:00:00,
2013-11-10 11:05:00,47.9,41.0,29.77,WSW,243,3.0,8.0,77,0.00,,,0.05,629.00,VWS V14.01,2013-11-10 16:05:00,
2013-11-10 11:10:00,47.8,40.3,29.76,WSW,255,2.0,12.0,75,0.00,,,0.05,204.00,VWS V14.01,2013-11-10 16:10:00,
2013-11-10 11:15:00,47.3,39.8,29.76,SSW,201,2.0,6.0,75,0.00,,,0.05,132.00,VWS V14.01,2013-11-10 16:15:00,
2013-11-10 11:20:00,47.1,39.6,29.76,SW,215,5.0,7.0,75,0.00,,,0.05,118.00,VWS V14.01,2013-11-10 16:20:00,
2013-11-10 11:25:00,46.9,39.4,29.76,WSW,247,7.0,9.0,75,0.00,,,0.05,98.00,VWS V14.01,2013-11-10 16:25:00,
2013-11-10 11:30:00,46.7,39.9,29.75,SW,225,3.0,4.0,77,0.00,,,0.05,98.00,VWS V14.01,2013-11-10 16:30:00,
2013-11-10 11:35:00,46.4,39.6,29.75,SSW,196,5.0,8.0,77,0.00,,,0.05,98.00,VWS V14.01,2013-11-10 16:35:00,
2013-11-10 11:40:00,46.2,39.4,29.75,SW,226,2.0,5.0,77,0.00,,,0.05,100.00,VWS V14.01,2013-11-10 16:40:00,
2013-11-10 11:45:00,46.1,39.6,29.74,West,269,4.0,5.0,78,0.00,,,0.05,137.00,VWS V14.01,2013-11-10 16:45:00,
2013-11-10 11:50:00,46.2,39.7,29.73,West,270,1.0,3.0,78,0.00,,,0.05,171.00,VWS V14.01,2013-11-10 16:50:00,
2013-11-10 11:55:00,46.4,39.6,29.74,SW,214,6.0,7.0,77,0.00,,,0.05,230.00,VWS V14.01,2013-11-10 16:55:00,
2013-11-10 12:00:00,46.5,40.0,29.75,WSW,251,9.0,10.0,78,0.00,,,0.05,149.00,VWS V14.01,2013-11-10 17:00:00,
2013-11-10 12:05:00,46.5,40.0,29.74,WSW,237,4.0,9.0,78,0.00,,,0.05,209.00,VWS V14.01,2013-11-10 17:05:00,
2013-11-10 12:10:00,46.5,40.0,29.74,SSW,209,1.0,4.0,78,0.00,,,0.05,223.00,VWS V14.01,2013-11-10 17:10:00,
2013-11-10 12:15:00,46.5,40.0,29.74,West,268,4.0,5.0,78,0.00,,,0.05,230.00,VWS V14.01,2013-11-10 17:15:00,
2013-11-10 12:20:00,46.5,40.0,29.74,WNW,282,3.0,4.0,78,0.00,,,0.05,172.00,VWS V14.01,2013-11-10 17:20:00,
2013-11-10 12:25:00,46.6,39.8,29.74,West,268,4.0,6.0,77,0.00,,,0.05,199.00,VWS V14.01,2013-11-10 17:25:00,
2013-11-10 12:30:00,46.5,39.7,29.73,West,279,6.0,12.0,77,0.00,,,0.05,144.00,VWS V14.01,2013-11-10 17:30:00,
2013-11-10 12:35:00,46.4,39.6,29.73,WNW,295,4.0,12.0,77,0.00,,,0.05,197.00,VWS V14.01,2013-11-10 17:35:00,
2013-11-10 12:40:00,46.5,39.7,29.73,WSW,251,3.0,9.0,77,0.00,,,0.05,185.00,VWS V14.01,2013-11-10 17:40:00,
2013-11-10 12:45:00,46.8,40.3,29.74,WNW,283,3.0,9.0,78,0.00,,,0.05,197.00,VWS V14.01,2013-11-10 17:45:00,
2013-11-10 12:50:00,46.9,40.1,29.74,WSW,255,1.0,5.0,77,0.00,,,0.05,176.00,VWS V14.01,2013-11-10 17:50:00,
2013-11-10 12:55:00,47.1,40.3,29.74,West,270,3.0,6.0,77,0.00,,,0.05,202.00,VWS V14.01,2013-11-10 17:55:00,
2013-11-10 13:00:00,47.2,40.0,29.73,SW,219,7.0,7.0,76,0.00,,,0.05,171.00,VWS V14.01,2013-11-10 18:00:00,
2013-11-10 13:05:00,47.0,40.2,29.73,West,271,6.0,12.0,77,0.00,,,0.05,165.00,VWS V14.01,2013-11-10 18:05:00,
2013-11-10 13:10:00,46.8,40.0,29.73,SW,216,6.0,11.0,77,0.00,,,0.05,171.00,VWS V14.01,2013-11-10 18:10:00,
2013-11-10 13:15:00,46.9,40.4,29.73,West,264,3.0,8.0,78,0.00,,,0.05,234.00,VWS V14.01,2013-11-10 18:15:00,
2013-11-10 13:20:00,47.0,40.5,29.73,SW,231,4.0,6.0,78,0.00,,,0.05,127.00,VWS V14.01,2013-11-10 18:20:00,
2013-11-10 13:25:00,47.2,40.7,29.72,SW,224,7.0,10.0,78,0.00,,,0.05,74.00,VWS V14.01,2013-11-10 18:25:00,
2013-11-10 13:30:00,47.2,40.4,29.72,SW,235,7.0,8.0,77,0.00,,,0.05,62.00,VWS V14.01,2013-11-10 18:30:00,
2013-11-10 13:35:00,47.1,40.6,29.73,West,274,2.0,3.0,78,0.00,,,0.05,60.00,VWS V14.01,2013-11-10 18:35:00,
2013-11-10 13:40:00,47.2,40.4,29.72,WSW,246,8.0,8.0,77,0.00,,,0.05,56.00,VWS V14.01,2013-11-10 18:40:00,
2013-11-10 13:45:00,47.0,40.5,29.73,WSW,253,4.0,11.0,78,0.00,,,0.05,79.00,VWS V14.01,2013-11-10 18:45:00,
2013-11-10 13:50:00,47.0,40.5,29.73,SSW,203,5.0,6.0,78,0.00,,,0.05,79.00,VWS V14.01,2013-11-10 18:50:00,
2013-11-10 13:55:00,47.0,40.5,29.73,WSW,256,5.0,8.0,78,0.00,,,0.05,51.00,VWS V14.01,2013-11-10 18:55:00,
2013-11-10 14:00:00,47.0,40.8,29.73,SW,222,3.0,6.0,79,0.00,,,0.05,63.00,VWS V14.01,2013-11-10 19:00:00,
2013-11-10 14:05:00,47.0,40.5,29.73,SW,231,4.0,7.0,78,0.00,,,0.05,70.00,VWS V14.01,2013-11-10 19:05:00,
2013-11-10 14:10:00,47.0,40.8,29.73,SW,222,1.0,4.0,79,0.00,,,0.05,72.00,VWS V14.01,2013-11-10 19:10:00,
2013-11-10 14:15:00,47.1,40.9,29.72,SSW,208,3.0,4.0,79,0.00,,,0.05,83.00,VWS V14.01,2013-11-10 19:15:00,
2013-11-10 14:20:00,47.2,41.0,29.72,West,266,2.0,3.0,79,0.00,,,0.05,84.00,VWS V14.01,2013-11-10 19:20:00,
2013-11-10 14:25:00,47.2,41.0,29.72,WSW,257,2.0,3.0,79,0.00,,,0.05,72.00,VWS V14.01,2013-11-10 19:25:00,
2013-11-10 14:30:00,47.2,41.0,29.72,WSW,251,2.0,3.0,79,0.00,,,0.05,69.00,VWS V14.01,2013-11-10 19:30:00,
2013-11-10 14:35:00,47.3,41.1,29.72,SSW,194,4.0,4.0,79,0.00,,,0.05,67.00,VWS V14.01,2013-11-10 19:35:00,
2013-11-10 14:40:00,47.2,41.0,29.72,SW,216,3.0,4.0,79,0.00,,,0.05,63.00,VWS V14.01,2013-11-10 19:40:00,
2013-11-10 14:45:00,47.3,41.1,29.72,SSW,208,3.0,6.0,79,0.00,,,0.05,65.00,VWS V14.01,2013-11-10 19:45:00,
2013-11-10 14:50:00,47.2,41.0,29.72,SW,222,3.0,5.0,79,0.00,,,0.05,54.00,VWS V14.01,2013-11-10 19:50:00,
2013-11-10 14:55:00,47.3,41.1,29.72,SSW,208,1.0,5.0,79,0.00,,,0.05,54.00,VWS V14.01,2013-11-10 19:55:00,
2013-11-10 15:01:00,47.2,41.0,29.72,SW,231,1.0,2.0,79,0.00,,,0.05,46.00,VWS V14.01,2013-11-10 20:01:00,
2013-11-10 15:06:00,47.3,41.1,29.73,SW,227,3.0,4.0,79,0.00,,,0.05,39.00,VWS V14.01,2013-11-10 20:06:00,
2013-11-10 15:11:00,47.2,41.0,29.73,SW,224,2.0,2.0,79,0.00,,,0.05,30.00,VWS V14.01,2013-11-10 20:11:00,
2013-11-10 15:16:00,47.2,41.4,29.73,SSW,212,3.0,3.0,80,0.00,,,0.05,21.00,VWS V14.01,2013-11-10 20:16:00,
2013-11-10 15:21:00,47.2,41.4,29.72,WSW,248,0.0,1.0,80,0.00,,,0.05,23.00,VWS V14.01,2013-11-10 20:21:00,
2013-11-10 15:26:00,47.1,41.3,29.72,SW,216,3.0,3.0,80,0.00,,,0.05,19.00,VWS V14.01,2013-11-10 20:26:00,
2013-11-10 15:31:00,47.1,41.3,29.72,SSW,203,2.0,2.0,80,0.00,,,0.05,19.00,VWS V14.01,2013-11-10 20:31:00,
2013-11-10 15:36:00,47.1,41.3,29.72,SSW,206,3.0,4.0,80,0.00,,,0.05,16.00,VWS V14.01,2013-11-10 20:36:00,
2013-11-10 15:41:00,47.1,41.3,29.73,SW,214,2.0,2.0,80,0.00,,,0.05,12.00,VWS V14.01,2013-11-10 20:41:00,
2013-11-10 15:46:00,47.1,41.3,29.73,SW,227,2.0,2.0,80,0.00,,,0.05,12.00,VWS V14.01,2013-11-10 20:46:00,
2013-11-10 15:51:00,47.0,41.5,29.73,SW,220,1.0,1.0,81,0.00,,,0.05,12.00,VWS V14.01,2013-11-10 20:51:00,
2013-11-10 15:56:00,47.0,41.5,29.73,SW,214,2.0,2.0,81,0.00,,,0.05,12.00,VWS V14.01,2013-11-10 20:56:00,
2013-11-10 16:01:00,47.0,41.5,29.73,SW,214,2.0,2.0,81,0.00,,,0.05,11.00,VWS V14.01,2013-11-10 21:01:00,
2013-11-10 16:06:00,47.0,41.5,29.73,SW,214,2.0,3.0,81,0.00,,,0.05,9.00,VWS V14.01,2013-11-10 21:06:00,
2013-11-10 16:11:00,46.9,41.4,29.72,SSW,212,2.0,4.0,81,0.00,,,0.05,5.00,VWS V14.01,2013-11-10 21:11:00,
2013-11-10 16:16:00,46.9,41.4,29.72,SSW,211,2.0,3.0,81,0.00,,,0.05,0.00,VWS V14.01,2013-11-10 21:16:00,
2013-11-10 16:21:00,46.9,41.1,29.73,SW,222,2.0,2.0,80,0.00,,,0.05,0.00,VWS V14.01,2013-11-10 21:21:00,
2013-11-10 16:26:00,46.9,41.4,29.73,SW,219,4.0,4.0,81,0.00,,,0.05,0.00,VWS V14.01,2013-11-10 21:26:00,
2013-11-10 16:31:00,46.7,41.2,29.73,SW,219,2.0,3.0,81,0.00,,,0.05,0.00,VWS V14.01,2013-11-10 21:31:00,
2013-11-10 16:36:00,46.6,41.1,29.73,SW,218,2.0,4.0,81,0.00,,,0.05,0.00,VWS V14.01,2013-11-10 21:36:00,
2013-11-10 16:41:00,46.5,41.0,29.73,SW,222,4.0,4.0,81,0.00,,,0.05,0.00,VWS V14.01,2013-11-10 21:41:00,
2013-11-10 16:46:00,46.5,41.0,29.73,SSW,213,4.0,4.0,81,0.00,,,0.05,0.00,VWS V14.01,2013-11-10 21:46:00,
2013-11-10 16:51:00,46.5,41.0,29.74,SW,218,5.0,5.0,81,0.00,,,0.05,0.00,VWS V14.01,2013-11-10 21:51:00,
2013-11-10 16:56:00,46.5,41.0,29.74,SW,231,2.0,3.0,81,0.00,,,0.05,0.00,VWS V14.01,2013-11-10 21:56:00,
2013-11-10 17:01:00,46.6,40.5,29.74,SSW,206,4.0,5.0,79,0.00,,,0.05,0.00,VWS V14.01,2013-11-10 22:01:00,
2013-11-10 17:06:00,47.1,40.3,29.74,SSW,201,3.0,7.0,77,0.00,,,0.05,0.00,VWS V14.01,2013-11-10 22:06:00,
2013-11-10 17:11:00,47.3,39.8,29.74,WSW,246,8.0,8.0,75,0.00,,,0.05,0.00,VWS V14.01,2013-11-10 22:11:00,
2013-11-10 17:16:00,47.4,39.9,29.74,WSW,256,4.0,4.0,75,0.00,,,0.05,0.00,VWS V14.01,2013-11-10 22:16:00,
2013-11-10 17:21:00,47.4,39.9,29.74,WSW,242,4.0,9.0,75,0.00,,,0.05,0.00,VWS V14.01,2013-11-10 22:21:00,
2013-11-10 17:26:00,47.4,39.9,29.74,WSW,241,8.0,8.0,75,0.00,,,0.05,0.00,VWS V14.01,2013-11-10 22:26:00,
2013-11-10 17:31:00,47.3,39.5,29.74,WSW,240,4.0,4.0,74,0.00,,,0.05,0.00,VWS V14.01,2013-11-10 22:31:00,
2013-11-10 17:36:00,47.3,39.5,29.74,SW,232,5.0,9.0,74,0.00,,,0.05,0.00,VWS V14.01,2013-11-10 22:36:00,
2013-11-10 17:41:00,47.2,39.3,29.74,SW,224,5.0,5.0,74,0.00,,,0.05,0.00,VWS V14.01,2013-11-10 22:41:00,
2013-11-10 17:46:00,47.1,39.2,29.75,SSW,204,6.0,6.0,74,0.00,,,0.05,0.00,VWS V14.01,2013-11-10 22:46:00,
2013-11-10 17:51:00,47.1,39.2,29.75,SW,224,5.0,6.0,74,0.00,,,0.05,0.00,VWS V14.01,2013-11-10 22:51:00,
2013-11-10 17:56:00,46.9,39.1,29.75,SW,234,3.0,5.0,74,0.00,,,0.05,0.00,VWS V14.01,2013-11-10 22:56:00,
2013-11-10 18:01:00,46.9,39.1,29.75,WSW,257,6.0,6.0,74,0.00,,,0.05,0.00,VWS V14.01,2013-11-10 23:01:00,
2013-11-10 18:06:00,46.8,39.3,29.75,SW,231,4.0,4.0,75,0.00,,,0.05,0.00,VWS V14.01,2013-11-10 23:06:00,
2013-11-10 18:11:00,46.7,39.2,29.75,WSW,246,4.0,5.0,75,0.00,,,0.05,0.00,VWS V14.01,2013-11-10 23:11:00,
2013-11-10 18:16:00,46.6,39.1,29.75,SW,233,4.0,5.0,75,0.00,,,0.05,0.00,VWS V14.01,2013-11-10 23:16:00,
2013-11-10 18:21:00,46.4,38.9,29.75,WSW,244,5.0,5.0,75,0.00,,,0.05,0.00,VWS V14.01,2013-11-10 23:21:00,
2013-11-10 18:26:00,46.2,39.1,29.74,South,189,4.0,6.0,76,0.00,,,0.05,0.00,VWS V14.01,2013-11-10 23:26:00,
2013-11-10 18:31:00,46.0,38.9,29.74,SW,214,5.0,6.0,76,0.00,,,0.05,0.00,VWS V14.01,2013-11-10 23:31:00,
2013-11-10 18:36:00,45.8,38.7,29.74,SW,220,6.0,6.0,76,0.00,,,0.05,0.00,VWS V14.01,2013-11-10 23:36:00,
2013-11-10 18:41:00,45.8,38.3,29.74,WSW,242,6.0,9.0,75,0.00,,,0.05,0.00,VWS V14.01,2013-11-10 23:41:00,
2013-11-10 18:46:00,45.8,38.3,29.74,SW,218,3.0,4.0,75,0.00,,,0.05,0.00,VWS V14.01,2013-11-10 23:46:00,
2013-11-10 18:51:00,45.7,37.9,29.74,SW,234,3.0,8.0,74,0.00,,,0.05,0.00,VWS V14.01,2013-11-10 23:51:00,
2013-11-10 18:56:00,45.7,37.5,29.74,WSW,252,13.0,13.0,73,0.00,,,0.05,0.00,VWS V14.01,2013-11-10 23:56:00,
2013-11-10 19:01:00,45.9,37.4,29.74,WSW,257,4.0,6.0,72,0.00,,,0.05,0.00,VWS V14.01,2013-11-11 00:01:00,
2013-11-10 19:06:00,46.0,37.1,29.75,WSW,240,6.0,11.0,71,0.00,,,0.05,0.00,VWS V14.01,2013-11-11 00:06:00,
2013-11-10 19:11:00,46.0,37.1,29.75,WNW,291,11.0,11.0,71,0.00,,,0.05,0.00,VWS V14.01,2013-11-11 00:11:00,
2013-11-10 19:16:00,45.8,37.0,29.75,WNW,290,10.0,14.0,71,0.00,,,0.05,0.00,VWS V14.01,2013-11-11 00:16:00,
2013-11-10 19:21:00,45.6,36.8,29.75,NW,314,4.0,9.0,71,0.00,,,0.05,0.00,VWS V14.01,2013-11-11 00:21:00,
2013-11-10 19:26:00,45.6,36.8,29.75,WSW,238,4.0,9.0,71,0.00,,,0.05,0.00,VWS V14.01,2013-11-11 00:26:00,
2013-11-10 19:31:00,45.5,36.7,29.75,West,267,6.0,9.0,71,0.00,,,0.05,0.00,VWS V14.01,2013-11-11 00:31:00,
2013-11-10 19:36:00,45.3,36.5,29.75,West,260,10.0,10.0,71,0.00,,,0.05,0.00,VWS V14.01,2013-11-11 00:36:00,
2013-11-10 19:41:00,45.1,36.6,29.75,WSW,239,6.0,9.0,72,0.00,,,0.05,0.00,VWS V14.01,2013-11-11 00:41:00,
2013-11-10 19:46:00,44.9,36.4,29.76,WSW,251,4.0,4.0,72,0.00,,,0.05,0.00,VWS V14.01,2013-11-11 00:46:00,
2013-11-10 19:51:00,44.6,36.5,29.76,WSW,249,5.0,5.0,73,0.00,,,0.05,0.00,VWS V14.01,2013-11-11 00:51:00,
2013-11-10 19:56:00,44.3,36.2,29.75,SSW,212,4.0,4.0,73,0.00,,,0.05,0.00,VWS V14.01,2013-11-11 00:56:00,
2013-11-10 20:01:00,44.0,36.3,29.75,West,260,4.0,11.0,74,0.00,,,0.05,0.00,VWS V14.01,2013-11-11 01:01:00,
2013-11-10 20:06:00,44.0,36.3,29.75,WSW,249,15.0,15.0,74,0.00,,,0.05,0.00,VWS V14.01,2013-11-11 01:06:00,
2013-11-10 20:10:00,44.0,36.3,29.76,SW,233,5.0,11.0,74,0.00,,,0.05,0.00,VWS V14.01,2013-11-11 01:10:00,
2013-11-10 20:15:00,43.8,36.1,29.75,WSW,256,11.0,11.0,74,0.00,,,0.05,0.00,VWS V14.01,2013-11-11 01:15:00,
2013-11-10 20:20:00,43.7,36.0,29.75,SW,216,7.0,12.0,74,0.00,,,0.05,0.00,VWS V14.01,2013-11-11 01:20:00,
2013-11-10 20:25:00,43.6,36.2,29.75,SSW,204,4.0,10.0,75,0.00,,,0.05,0.00,VWS V14.01,2013-11-11 01:25:00,
2013-11-10 20:30:00,43.3,35.9,29.75,WSW,247,10.0,12.0,75,0.00,,,0.05,0.00,VWS V14.01,2013-11-11 01:30:00,
2013-11-10 20:35:00,43.3,35.9,29.75,West,268,8.0,10.0,75,0.00,,,0.05,0.00,VWS V14.01,2013-11-11 01:35:00,
2013-11-10 20:40:00,43.2,36.2,29.75,SW,219,7.0,9.0,76,0.00,,,0.05,0.00,VWS V14.01,2013-11-11 01:40:00,
2013-11-10 20:45:00,43.1,36.1,29.75,WSW,258,6.0,9.0,76,0.00,,,0.05,0.00,VWS V14.01,2013-11-11 01:45:00,
2013-11-10 20:50:00,43.2,36.2,29.75,West,268,8.0,9.0,76,0.00,,,0.05,0.00,VWS V14.01,2013-11-11 01:50:00,
2013-11-10 20:55:00,43.2,36.2,29.75,WSW,245,3.0,7.0,76,0.00,,,0.05,0.00,VWS V14.01,2013-11-11 01:55:00,
2013-11-10 21:00:00,43.1,36.1,29.75,WSW,249,15.0,15.0,76,0.00,,,0.05,0.00,VWS V14.01,2013-11-11 02:00:00,
2013-11-10 21:05:00,43.1,36.1,29.75,WSW,248,11.0,11.0,76,0.00,,,0.05,0.00,VWS V14.01,2013-11-11 02:05:00,
2013-11-10 21:10:00,43.1,36.1,29.75,WSW,245,12.0,12.0,76,0.00,,,0.05,0.00,VWS V14.01,2013-11-11 02:10:00,
2013-11-10 21:15:00,43.1,35.7,29.75,WSW,257,8.0,13.0,75,0.00,,,0.05,0.00,VWS V14.01,2013-11-11 02:15:00,
2013-11-10 21:20:00,43.0,36.0,29.76,WNW,298,7.0,14.0,76,0.00,,,0.05,0.00,VWS V14.01,2013-11-11 02:20:00,
2013-11-10 21:25:00,42.8,35.8,29.75,SW,226,6.0,8.0,76,0.00,,,0.05,0.00,VWS V14.01,2013-11-11 02:25:00,
2013-11-10 21:30:00,42.6,35.6,29.75,SW,218,5.0,8.0,76,0.00,,,0.05,0.00,VWS V14.01,2013-11-11 02:30:00,
2013-11-10 21:35:00,42.5,35.8,29.75,WSW,245,5.0,10.0,77,0.00,,,0.05,0.00,VWS V14.01,2013-11-11 02:35:00,
2013-11-10 21:40:00,42.6,35.6,29.76,SW,226,5.0,10.0,76,0.00,,,0.05,0.00,VWS V14.01,2013-11-11 02:40:00,
2013-11-10 21:45:00,42.6,35.6,29.75,WSW,237,5.0,8.0,76,0.00,,,0.05,0.00,VWS V14.01,2013-11-11 02:45:00,
2013-11-10 21:50:00,42.5,35.5,29.76,SW,226,2.0,5.0,76,0.00,,,0.05,0.00,VWS V14.01,2013-11-11 02:50:00,
2013-11-10 21:55:00,42.7,35.7,29.75,SSW,212,11.0,12.0,76,0.00,,,0.05,0.00,VWS V14.01,2013-11-11 02:55:00,
2013-11-10 22:00:00,42.5,35.5,29.75,WSW,237,8.0,11.0,76,0.00,,,0.05,0.00,VWS V14.01,2013-11-11 03:00:00,
2013-11-10 22:06:00,42.5,35.5,29.75,SSW,204,4.0,7.0,76,0.00,,,0.05,0.00,VWS V14.01,2013-11-11 03:06:00,
2013-11-10 22:11:00,42.3,35.3,29.75,WSW,245,5.0,7.0,76,0.00,,,0.05,0.00,VWS V14.01,2013-11-11 03:11:00,
2013-11-10 22:16:00,42.3,35.3,29.76,West,264,8.0,11.0,76,0.00,,,0.05,0.00,VWS V14.01,2013-11-11 03:16:00,
2013-11-10 22:21:00,42.3,35.3,29.76,WSW,244,7.0,10.0,76,0.00,,,0.05,0.00,VWS V14.01,2013-11-11 03:21:00,
2013-11-10 22:26:00,42.2,35.2,29.76,SW,214,6.0,13.0,76,0.00,,,0.05,0.00,VWS V14.01,2013-11-11 03:26:00,
2013-11-10 22:31:00,42.1,35.1,29.76,WSW,241,9.0,9.0,76,0.00,,,0.05,0.00,VWS V14.01,2013-11-11 03:31:00,
2013-11-10 22:36:00,41.9,35.2,29.76,SW,228,4.0,12.0,77,0.00,,,0.05,0.00,VWS V14.01,2013-11-11 03:36:00,
2013-11-10 22:41:00,41.9,34.9,29.76,West,276,2.0,13.0,76,0.00,,,0.05,0.00,VWS V14.01,2013-11-11 03:41:00,
2013-11-10 22:46:00,42.0,35.0,29.76,West,268,6.0,10.0,76,0.00,,,0.05,0.00,VWS V14.01,2013-11-11 03:46:00,
2013-11-10 22:50:00,42.0,35.0,29.76,SW,226,5.0,9.0,76,0.00,,,0.05,0.00,VWS V14.01,2013-11-11 03:50:00,
2013-11-10 22:55:00,42.0,35.0,29.76,West,262,4.0,7.0,76,0.00,,,0.05,0.00,VWS V14.01,2013-11-11 03:55:00,
2013-11-10 23:00:00,42.0,35.0,29.76,West,268,7.0,7.0,76,0.00,,,0.05,0.00,VWS V14.01,2013-11-11 04:00:00,
2013-11-10 23:05:00,42.1,35.1,29.77,SSW,201,6.0,11.0,76,0.00,,,0.05,0.00,VWS V14.01,2013-11-11 04:05:00,
2013-11-10 23:10:00,42.0,35.0,29.77,SW,224,4.0,8.0,76,0.00,,,0.05,0.00,VWS V14.01,2013-11-11 04:10:00,
2013-11-10 23:15:00,41.9,34.9,29.77,SW,228,7.0,8.0,76,0.00,,,0.05,0.00,VWS V14.01,2013-11-11 04:15:00,
2013-11-10 23:20:00,42.0,34.7,29.77,West,262,8.0,11.0,75,0.00,,,0.05,0.00,VWS V14.01,2013-11-11 04:20:00,
2013-11-10 23:25:00,42.1,34.8,29.77,SSW,201,10.0,11.0,75,0.00,,,0.05,0.00,VWS V14.01,2013-11-11 04:25:00,
2013-11-10 23:30:00,42.2,34.9,29.77,West,280,11.0,11.0,75,0.00,,,0.05,0.00,VWS V14.01,2013-11-11 04:30:00,
2013-11-10 23:35:00,42.2,34.9,29.77,West,275,4.0,7.0,75,0.00,,,0.05,0.00,VWS V14.01,2013-11-11 04:35:00,
2013-11-10 23:40:00,42.2,34.9,29.77,WSW,256,3.0,7.0,75,0.00,,,0.05,0.00,VWS V14.01,2013-11-11 04:40:00,
2013-11-10 23:45:00,42.3,34.6,29.78,WNW,297,4.0,12.0,74,0.00,,,0.05,0.00,VWS V14.01,2013-11-11 04:45:00,
2013-11-10 23:50:00,42.3,34.6,29.78,WNW,283,10.0,12.0,74,0.00,,,0.05,0.00,VWS V14.01,2013-11-11 04:50:00,
2013-11-10 23:55:00,42.3,34.6,29.78,WSW,251,4.0,10.0,74,0.00,,,0.05,0.00,VWS V14.01,2013-11-11 04:55:00,